This is the latest recevied weather packets stored in our database for station/object AD4WX-13. If no packets are shown the sender has not sent any weather packets the latest 10 day(s).
| Time | Temp. | Humidity | Pressure | Rain* | Wind** | Luminosity | Snow |
|---|---|---|---|---|---|---|---|
| 1777740504 | 19.44° C | 39% | 1016.2 hPa | 0 mm | - | 1185 W/m² | - |
| 1777729494 | 14.44° C | 66% | 1016.1 hPa | 0 mm | - | 487 W/m² | - |
| 1777726298 | 11.67° C | 84% | 1015.8 hPa | 0 mm | - | 323 W/m² | - |
| 1777723237 | 4.44° C | 92% | 1015.6 hPa | 0 mm | - | 30 W/m² | - |
| 1777721922 | 4.44° C | 92% | 1015.3 hPa | 0 mm | - | 23 W/m² | - |
| 1777719410 | 4.44° C | 91% | 1015 hPa | 0 mm | - | 0 W/m² | - |
| 1777717536 | 5° C | 91% | 1014.8 hPa | 0 mm | - | 0 W/m² | - |
| 1777714478 | 5.56° C | 90% | 1014.6 hPa | 0 mm | - | 0 W/m² | - |
| 1777713809 | 5.56° C | 90% | 1014.7 hPa | 0 mm | - | 0 W/m² | - |
| 1777712538 | 6.11° C | 89% | 1014.7 hPa | 0 mm | - | 0 W/m² | - |
| 1777708277 | 7.78° C | 86% | 1014.6 hPa | 0 mm | - | 0 W/m² | - |
| 1777703930 | 8.33° C | 84% | 1015.4 hPa | 0 mm | - | 0 W/m² | - |
| 1777697230 | 10° C | 68% | 1014.9 hPa | 0 mm | - | 0 W/m² | - |
| 1777691666 | 10.56° C | 71% | 1015.6 hPa | 0 mm | - | 0 W/m² | - |
| 1777682470 | 13.33° C | 64% | 1014 hPa | 0 mm | - | 0 W/m² | - |
| 1777681801 | 13.89° C | 60% | 1014.1 hPa | 0 mm | - | 9 W/m² | - |
| 1777678698 | 16.67° C | 45% | 1013.1 hPa | 0 mm | - | 107 W/m² | - |
| 1777678012 | 16.67° C | 43% | 1013 hPa | 0 mm | - | 178 W/m² | - |
| 1777671224 | 18.89° C | 44% | 1012.1 hPa | 0 mm | - | 380 W/m² | - |
| 1777663910 | 19.44° C | 45% | 1014.1 hPa | 0 mm | - | 540 W/m² | - |
| 1777660798 | 19.44° C | 47% | 1014.6 hPa | 0 mm | - | 561 W/m² | - |
| 1777660106 | 19.44° C | 50% | 1014.4 hPa | 0 mm | - | 737 W/m² | - |
| 1777649715 | 18.33° C | 59% | 1014.8 hPa | 0 mm | - | 705 W/m² | - |
| 1777649024 | 18.33° C | 60% | 1014.9 hPa | 0 mm | - | 701 W/m² | - |
| 1777645247 | 16.11° C | 66% | 1015 hPa | 0 mm | - | 575 W/m² | - |
* Rain latest hour (hover to see other rain measurements)
** Current wind speed in m/s (hover to see current wind gust speed)